• Join FlightAware (Why Join?)
  • Login
  • US Flag 
03:45PM EDT


 

Airport Tracker/Info


-or-


 

Live Flight TrackerFlight Track Log ✈ AWE3912 ✈ 04-Sep-2013 ✈ KPHL - CYUL

Flight Track Log - Related Links

Times and Time Zones

All times are in EDT time to prevent confusion due to time zone crossing. See the AWE3912 flight status page for this flight to view local times or setup timezone preferences in your user account.

Time Position Orientation Groundspeed Altitude Reporting Facility
EDT Latitude Longitude Course Direction KTS MPH feet Rate Location/Type
11:45AM 39.8667 -75.2667 57° Northeast 175 201 900  Level Philadelphia TRACON
11:46AM 39.8333 -75.3333 237° Southwest 204 235 3,300 1,800 Climbing Philadelphia TRACON
11:47AM 39.7833 -75.4000 226° Southwest 273 314 4,500 1,620 Climbing Philadelphia TRACON
11:48AM 39.7167 -75.4167 191° South 299 344 6,400 1,740 Climbing Philadelphia TRACON
11:49AM 39.9774 -74.5190 46° Northeast  Level FlightAware Approximate
11:49AM 39.7167 -75.3000 90° East 296 341 8,200  Level Philadelphia TRACON
11:50AM 40.0771 -74.4124 57° Northeast  Level FlightAware Approximate
11:50AM 39.7333 -75.2000 78° East 309 356 9,900  Level Philadelphia TRACON
11:52AM 39.7533 -75.0264 81° East 339 390 11,300 780 Climbing New York Center
11:53AM 39.7731 -74.8817 80° East 363 418 12,000 720 Climbing New York Center
11:54AM 39.7900 -74.7558 80° East 381 438 12,800 1,020 Climbing New York Center
11:55AM 39.8536 -74.6567 50° Northeast 365 420 14,100 1,320 Climbing New York Center
11:56AM 39.9375 -74.5772 36° Northeast 354 407 15,500 1,320 Climbing New York Center
11:57AM 40.0281 -74.4847 38° Northeast 364 419 16,800 1,140 Climbing New York Center
11:58AM 40.1139 -74.4025 36° Northeast 381 438 17,800 960 Climbing New York Center
11:59AM 40.1933 -74.3333 34° Northeast 375 432 18,800 840 Climbing New York Center
12:00PM 40.2869 -74.2672 28° Northeast 375 432 19,500 720 Climbing New York Center
12:01PM 40.3847 -74.2014 27° Northeast 380 437 20,300 720 Climbing New York Center
12:02PM 40.4825 -74.1325 28° Northeast 386 444 21,000 960 Climbing New York Center
12:04PM 40.6828 -74.0000 27° Northeast 408 470 23,200 1,200 Climbing Boston Center
12:05PM 40.7775 -73.9364 27° Northeast 398 458 24,600 1,320 Climbing Boston Center
12:06PM 40.8719 -73.8728 27° Northeast 387 445 25,900 1,140 Climbing Boston Center
12:07PM 40.9644 -73.8061 29° Northeast 377 434 27,000 540 Climbing Boston Center
12:08PM 41.0486 -73.7503 27° Northeast 372 428 27,000  Level Boston Center
12:09PM 41.1453 -73.6833 28° Northeast 377 434 27,000  Level Boston Center
12:10PM 41.2419 -73.6133 29° Northeast 377 434 27,000  Level Boston Center
12:11PM 41.3422 -73.5708 18° North 377 434 27,000  Level Boston Center
12:12PM 41.4486 -73.5728 359° North 371 427 27,000  Level Boston Center
12:13PM 41.5611 -73.5719 360° North 363 418 27,000  Level Boston Center
12:14PM 41.6675 -73.5711 360° North 368 423 27,000  Level Boston Center
12:15PM 41.7694 -73.5703 360° North 368 423 27,000  Level Boston Center
12:16PM 41.8758 -73.5692 360° North 368 423 27,000  Level Boston Center
12:17PM 41.9800 -73.5683 360° North 368 423 27,000  Level Boston Center
12:18PM 42.0761 -73.5589 North 371 427 27,000  Level Boston Center
12:19PM 42.1803 -73.5578 360° North 376 433 27,000  Level Boston Center
12:20PM 42.2864 -73.5597 359° North 376 433 27,000  Level Boston Center
12:21PM 42.3908 -73.5617 359° North 376 433 27,000  Level Boston Center
12:22PM 42.4969 -73.5608 360° North 376 433 27,000  Level Boston Center
12:23PM 42.6011 -73.5600 360° North 376 433 27,000  Level Boston Center
12:24PM 42.7075 -73.5561 North 376 433 27,000  Level Boston Center
12:25PM 42.8139 -73.5553 360° North 376 433 27,000  Level Boston Center
12:26PM 42.9244 -73.5486 North 371 427 27,000  Level Boston Center
12:27PM 43.0328 -73.5478 360° North 371 427 27,000  Level Boston Center
12:28PM 43.1161 -73.5464 North 371 427 27,000  Level Boston Center
12:29PM 43.2411 -73.5431 North 371 427 27,000  Level Boston Center
12:30PM 43.3369 -73.5419 360° North 371 427 27,000  Level Boston Center
12:31PM 43.4433 -73.5411 360° North 366 421 27,000  Level Boston Center
12:32PM 43.5475 -73.5400 360° North 371 427 27,000  Level Boston Center
12:33PM 43.6497 -73.5419 359° North 371 427 27,000  Level Boston Center
12:34PM 43.7622 -73.5381 North 357 411 27,000  Level Boston Center
12:35PM 43.8664 -73.5344 North 368 423 27,000  Level Boston Center
12:36PM 43.9603 -73.5361 359° North 368 423 27,000  Level Boston Center
12:37PM 44.0644 -73.5322 North 368 423 27,000  Level Boston Center
12:38PM 44.1708 -73.5314 360° North 368 423 27,000  Level Boston Center
12:39PM 44.2750 -73.5275 North 368 423 27,000 -420 Level Boston Center
12:40PM 44.3769 -73.5292 359° North 363 418 26,200 -1,560 Descending Boston Center
12:41PM 44.4811 -73.5253 North 363 418 23,900 -2,280 Descending Boston Center
12:42PM 44.5792 -73.5242 360° North 358 412 21,700 -2,220 Descending Boston Center
12:43PM 44.6750 -73.5231 360° North 348 400 19,500 -2,160 Descending Boston Center
12:44PM 44.7686 -73.5306 357° North 337 388 17,400 -2,100 Descending Boston Center
12:45PM 44.8581 -73.5411 355° North 325 374 15,400 -2,220 Descending Boston Center
12:46PM 44.9519 -73.5486 357° North 315 362 13,100 -2,100 Descending Boston Center
12:46PM 45.0167 -73.5500 359° North 300 345 11,400 -2,040 Descending Montreal Center
12:47PM 45.1000 -73.5500 360° North 280 322 9,300 -1,680 Descending Montreal Center
12:48PM 45.1833 -73.5667 352° North 270 311 8,100 -600 Descending Montreal Center
12:49PM 45.2500 -73.5667 360° North 260 299 8,100 -300 Level Montreal Center
12:50PM 45.3167 -73.5833 350° North 260 299 7,500 -1,020 Descending Montreal Center
12:51PM 45.4000 -73.5833 360° North 270 311 6,100 -720 Descending Montreal Center
12:52PM 45.4667 -73.5500 19° North 290 334 6,100 -180 Level Montreal Center
12:53PM 45.5167 -73.4500 54° Northeast 280 322 5,800 -780 Descending Montreal Center
12:54PM 45.5667 -73.4000 35° Northeast 240 276 4,600 -1,080 Descending Montreal Center
12:55PM 45.6333 -73.4333 341° North 200 230 3,700 -840 Descending Montreal Center
12:56PM 45.6333 -73.4833 270° West 170 196 3,000 -300 Descending Montreal Center
12:57PM 45.6167 -73.5500 250° West 180 207 3,100 -60 Climbing Montreal Center
12:58PM 45.5667 -73.6000 215° Southwest 180 207 2,900 -600 Descending Montreal Center
12:59PM 45.5333 -73.6500 226° Southwest 150 173 2,000 -900 Descending Montreal Center
01:00PM 45.5167 -73.6667 215° Southwest 140 161 1,200 -720 Descending Montreal Center
01:01PM 45.4833 -73.7167 226° Southwest 140 161 600 -600 Descending Montreal Center
01:02PM 45.4500 -73.7500 215° Southwest 70 81 100 -540 Descending Montreal Center